Time;durP1;ratioP1;P1;durP2;ratioP2;P2;SDS_P1;SDS_P2;PMS_P1;PMS_P2;Temp;Humidity;BMP_temperature;BMP_pressure;BME280_temperature;BME280_humidity;BME280_pressure;Samples;Min_cycle;Max_cycle;Signal;HPM_P1;HPM_P2
2022/03/19 00:00:46;;;;;;;;;;;;;;;28.79;16.18;103085.44;5000154;28;929;-26
2022/03/19 00:03:12;;;;;;;;;;;;;;;29.30;15.64;103086.28;5003083;28;897;-26
2022/03/19 00:05:38;;;;;;;;;;;;;;;29.35;15.54;103080.44;5018853;28;845;-27
2022/03/19 00:08:03;;;;;;;;;;;;;;;29.57;15.51;103086.56;5007493;28;1470;-24
2022/03/19 00:10:28;;;;;;;;;;;;;;;28.87;16.13;103084.72;5019085;28;1898;-26
2022/03/19 00:12:54;;;;;;;;;;;;;;;28.93;16.15;103084.16;5019509;28;833;-27
2022/03/19 00:15:19;;;;;;;;;;;;;;;28.83;16.30;103081.44;5018944;28;837;-25
2022/03/19 00:17:45;;;;;;;;;;;;;;;28.72;15.85;103079.72;5017199;28;1312;-30
2022/03/19 00:20:11;;;;;;;;;;;;;;;28.97;16.00;103077.53;5013258;28;779;-26
2022/03/19 00:22:36;;;;;;;;;;;;;;;29.60;15.59;103083.59;5011760;28;1074;-26
2022/03/19 00:25:01;;;;;;;;;;;;;;;29.74;15.56;103085.03;4998698;28;831;-25
2022/03/19 00:27:27;;;;;;;;;;;;;;;29.28;15.70;103073.88;4999796;28;797;-26
2022/03/19 00:29:53;;;;;;;;;;;;;;;28.93;16.25;103082.31;5018959;28;750;-27
2022/03/19 00:32:18;;;;;;;;;;;;;;;29.13;15.91;103079.69;5018264;28;1903;-24
2022/03/19 00:34:43;;;;;;;;;;;;;;;28.94;16.22;103080.47;5007088;28;1132;-27
2022/03/19 00:37:09;;;;;;;;;;;;;;;28.76;16.10;103072.16;4999557;28;790;-27
2022/03/19 00:39:34;;;;;;;;;;;;;;;28.26;17.21;103071.06;4999700;28;865;-25
2022/03/19 00:41:59;;;;;;;;;;;;;;;29.42;15.67;103075.28;4999357;28;898;-25
2022/03/19 00:44:24;;;;;;;;;;;;;;;29.67;15.53;103081.16;5006393;28;1526;-26
2022/03/19 00:46:50;;;;;;;;;;;;;;;29.56;15.61;103074.84;5008215;28;830;-24
2022/03/19 00:49:15;;;;;;;;;;;;;;;29.08;16.04;103074.69;5011458;28;969;-25
2022/03/19 00:51:40;;;;;;;;;;;;;;;28.98;16.08;103079.22;5018147;28;1915;-25
2022/03/19 00:54:06;;;;;;;;;;;;;;;29.12;15.93;103068.97;5017956;28;845;-26
2022/03/19 00:56:31;;;;;;;;;;;;;;;28.94;16.21;103067.81;5017695;28;766;-28
2022/03/19 00:58:57;;;;;;;;;;;;;;;28.50;16.42;103069.91;5017698;28;1411;-28
2022/03/19 01:01:22;;;;;;;;;;;;;;;29.56;15.84;103066.72;5003655;28;754;-25
2022/03/19 01:03:48;;;;;;;;;;;;;;;29.81;15.58;103066.31;5006504;28;1037;-27
2022/03/19 01:06:13;;;;;;;;;;;;;;;29.74;15.45;103073.31;5017762;28;1426;-25
2022/03/19 01:08:38;;;;;;;;;;;;;;;28.95;16.07;103071.34;5017627;28;940;-26
2022/03/19 01:11:04;;;;;;;;;;;;;;;28.98;16.25;103067.56;5017779;28;1910;-30
2022/03/19 01:13:29;;;;;;;;;;;;;;;28.83;16.45;103065.19;5001407;28;874;-26
2022/03/19 01:15:54;;;;;;;;;;;;;;;29.09;15.71;103053.88;4998664;28;849;-27
2022/03/19 01:18:19;;;;;;;;;;;;;;;28.79;15.91;103061.06;5010469;28;1514;-29
2022/03/19 01:20:45;;;;;;;;;;;;;;;29.14;15.90;103058.88;5001813;28;938;-24
2022/03/19 01:23:10;;;;;;;;;;;;;;;29.59;15.38;103054.78;4998872;28;820;-28
2022/03/19 01:25:36;;;;;;;;;;;;;;;29.62;15.79;103054.47;5003772;28;854;-26
2022/03/19 01:28:01;;;;;;;;;;;;;;;29.51;15.69;103044.59;4999486;28;822;-25
2022/03/19 01:30:26;;;;;;;;;;;;;;;29.11;16.09;103042.91;4998540;28;1906;-27
2022/03/19 01:32:52;;;;;;;;;;;;;;;28.92;16.28;103049.97;4998282;28;829;-27
2022/03/19 01:35:18;;;;;;;;;;;;;;;29.04;15.85;103048.88;5015156;28;999;-27
2022/03/19 01:37:44;;;;;;;;;;;;;;;28.81;16.13;103054.50;5017014;28;833;-25
2022/03/19 01:40:09;;;;;;;;;;;;;;;29.08;16.12;103047.59;5000782;28;814;-26
2022/03/19 01:42:36;;;;;;;;;;;;;;;29.62;15.53;103049.06;4998403;28;783;-26
2022/03/19 01:45:01;;;;;;;;;;;;;;;29.81;15.22;103052.75;4998672;28;794;-29
2022/03/19 01:47:29;;;;;;;;;;;;;;;29.78;15.61;103053.06;4998301;28;881;-26
2022/03/19 01:49:54;;;;;;;;;;;;;;;29.28;15.84;103044.06;5013661;28;1031;-27
2022/03/19 01:52:20;;;;;;;;;;;;;;;29.05;16.04;103049.72;5007798;28;1902;-26
2022/03/19 01:54:46;;;;;;;;;;;;;;;29.13;15.83;103049.88;4998293;28;1030;-25
2022/03/19 01:57:14;;;;;;;;;;;;;;;28.81;16.08;103043.66;4997990;28;835;-26
2022/03/19 01:59:40;;;;;;;;;;;;;;;29.21;16.21;103050.03;4998136;28;827;-25
2022/03/19 02:02:07;;;;;;;;;;;;;;;29.73;15.53;103053.47;4997028;28;845;-24
2022/03/19 02:04:35;;;;;;;;;;;;;;;29.82;15.49;103046.31;5006073;28;881;-26
2022/03/19 02:07:01;;;;;;;;;;;;;;;29.43;15.71;103053.47;5017030;28;762;-26
2022/03/19 02:09:26;;;;;;;;;;;;;;;29.27;16.18;103048.63;5016415;28;806;-26
2022/03/19 02:11:51;;;;;;;;;;;;;;;28.83;16.40;103049.78;5016752;28;1969;-25
2022/03/19 02:14:17;;;;;;;;;;;;;;;28.99;16.00;103040.31;5013194;28;1549;-25
2022/03/19 02:16:43;;;;;;;;;;;;;;;28.58;16.11;103043.88;5006778;28;922;-27
2022/03/19 02:19:10;;;;;;;;;;;;;;;29.28;16.21;103046.78;5004954;28;901;-26
2022/03/19 02:21:39;;;;;;;;;;;;;;;29.85;15.53;103043.31;5016473;28;794;-27
2022/03/19 02:26:48;;;;;;;;;;;;;;;29.22;16.16;103037.34;5013091;28;808;-26
2022/03/19 02:29:14;;;;;;;;;;;;;;;29.18;16.18;103041.31;5006527;28;893;-26
2022/03/19 02:31:42;;;;;;;;;;;;;;;29.20;16.05;103032.06;5000906;28;1965;-28
2022/03/19 02:34:10;;;;;;;;;;;;;;;29.17;15.75;103039.63;5006292;28;1094;-28
2022/03/19 02:36:36;;;;;;;;;;;;;;;28.72;16.14;103034.53;5016417;28;950;-25
2022/03/19 02:39:11;;;;;;;;;;;;;;;29.03;16.34;103030.91;5016220;28;916;-26
2022/03/19 02:41:40;;;;;;;;;;;;;;;29.77;15.63;103035.91;5003317;28;846;-26
2022/03/19 02:44:05;;;;;;;;;;;;;;;29.83;15.62;103037.16;5003352;28;790;-25
2022/03/19 02:46:40;;;;;;;;;;;;;;;29.56;15.94;103041.47;5016031;28;841;-26
2022/03/19 02:49:05;;;;;;;;;;;;;;;29.55;15.94;103039.75;5014440;28;908;-27
2022/03/19 02:51:37;;;;;;;;;;;;;;;29.28;16.09;103044.06;5016228;28;2006;-24
2022/03/19 02:54:03;;;;;;;;;;;;;;;28.81;16.34;103042.81;5015967;28;829;-28
2022/03/19 02:56:29;;;;;;;;;;;;;;;28.91;16.66;103042.84;5016234;28;1047;-27
2022/03/19 02:58:54;;;;;;;;;;;;;;;29.75;15.69;103047.88;5016242;28;850;-28
2022/03/19 03:01:19;;;;;;;;;;;;;;;29.75;15.64;103042.47;5016133;28;798;-27
2022/03/19 03:03:44;;;;;;;;;;;;;;;29.69;15.72;103043.91;5009726;28;934;-25
2022/03/19 03:06:10;;;;;;;;;;;;;;;28.96;16.24;103035.97;5016362;28;739;-29
2022/03/19 03:08:35;;;;;;;;;;;;;;;28.92;16.50;103042.69;5006687;28;873;-26
2022/03/19 03:11:01;;;;;;;;;;;;;;;28.95;16.47;103045.13;5000644;28;1902;-25
2022/03/19 03:13:26;;;;;;;;;;;;;;;28.81;15.83;103043.66;5001368;28;812;-26
2022/03/19 03:15:51;;;;;;;;;;;;;;;29.27;15.95;103037.78;5007325;28;1441;-25
2022/03/19 03:18:16;;;;;;;;;;;;;;;29.05;16.33;103030.75;5003058;28;828;-25
2022/03/19 03:20:42;;;;;;;;;;;;;;;28.96;15.99;103029.72;5018815;28;920;-26
2022/03/19 03:23:07;;;;;;;;;;;;;;;28.75;16.25;103036.09;5001230;28;854;-25
2022/03/19 03:25:33;;;;;;;;;;;;;;;29.42;15.79;103035.50;5001016;28;797;-27
2022/03/19 03:27:58;;;;;;;;;;;;;;;29.75;15.42;103037.03;5005882;28;1351;-25
2022/03/19 03:30:23;;;;;;;;;;;;;;;29.74;15.36;103040.75;5007120;28;1898;-25
2022/03/19 03:32:49;;;;;;;;;;;;;;;28.87;16.52;103033.25;5004044;28;911;-28
2022/03/19 03:35:14;;;;;;;;;;;;;;;29.04;16.34;103034.47;5019344;28;1479;-25
2022/03/19 03:37:39;;;;;;;;;;;;;;;29.07;16.16;103039.59;5019951;28;814;-28
2022/03/19 03:40:05;;;;;;;;;;;;;;;29.06;16.09;103041.44;5019772;28;834;-27
2022/03/19 03:42:30;;;;;;;;;;;;;;;28.98;15.60;103044.00;5019400;28;908;-27
2022/03/19 03:44:58;;;;;;;;;;;;;;;29.51;15.50;103051.91;5017542;28;845;-25
2022/03/19 03:47:24;;;;;;;;;;;;;;;29.69;15.53;103052.91;5000344;28;858;-27
2022/03/19 03:49:49;;;;;;;;;;;;;;;29.69;15.35;103057.47;5000240;28;956;-26
2022/03/19 03:52:15;;;;;;;;;;;;;;;29.39;15.79;103056.59;5000368;28;1906;-29
2022/03/19 03:54:40;;;;;;;;;;;;;;;28.99;16.14;103059.28;5000563;28;778;-27
2022/03/19 03:57:05;;;;;;;;;;;;;;;29.37;15.76;103070.31;5000311;28;727;-26
2022/03/19 03:59:30;;;;;;;;;;;;;;;29.31;15.67;103073.59;5008230;28;1264;-26
2022/03/19 04:01:56;;;;;;;;;;;;;;;28.84;15.90;103075.88;5007254;28;791;-25
2022/03/19 04:04:22;;;;;;;;;;;;;;;29.30;15.19;103071.84;5009575;28;837;-25
2022/03/19 04:06:47;;;;;;;;;;;;;;;29.63;14.96;103083.31;5018869;28;739;-26
2022/03/19 04:09:12;;;;;;;;;;;;;;;29.52;14.99;103078.00;5003334;28;888;-26
2022/03/19 04:11:38;;;;;;;;;;;;;;;29.23;15.00;103074.28;5006084;28;1902;-28
2022/03/19 04:14:03;;;;;;;;;;;;;;;28.19;15.88;103073.47;5000273;28;727;-26
2022/03/19 04:16:29;;;;;;;;;;;;;;;28.07;16.09;103075.38;4999769;28;873;-28
2022/03/19 04:18:54;;;;;;;;;;;;;;;28.04;16.07;103078.34;5007593;28;845;-27
2022/03/19 04:21:20;;;;;;;;;;;;;;;26.36;11.25;103075.66;5018446;28;1031;-24
2022/03/19 04:23:47;;;;;;;;;;;;;;;25.50;14.12;103071.31;5018632;28;774;-24
2022/03/19 04:26:12;;;;;;;;;;;;;;;26.87;13.78;103030.25;5014321;28;1705;-25
2022/03/19 04:28:38;;;;;;;;;;;;;;;27.81;13.58;103075.78;5010251;28;829;-25
2022/03/19 04:31:03;;;;;;;;;;;;;;;27.98;13.68;103068.91;5002891;28;2035;-27
2022/03/19 04:33:28;;;;;;;;;;;;;;;26.61;15.33;103075.56;5015648;28;921;-25
2022/03/19 04:38:39;;;;;;;;;;;;;;;26.73;15.33;103074.56;5013975;28;663;-27
2022/03/19 04:41:05;;;;;;;;;;;;;;;26.83;15.48;103073.81;5012576;28;1012;-26
2022/03/19 04:43:30;;;;;;;;;;;;;;;27.06;14.96;103074.66;4999890;28;790;-29
2022/03/19 04:45:55;;;;;;;;;;;;;;;27.21;15.23;103074.41;4999089;28;1494;-28
2022/03/19 04:48:21;;;;;;;;;;;;;;;27.30;14.96;103073.63;4999910;28;888;-25
2022/03/19 04:50:48;;;;;;;;;;;;;;;25.40;12.26;103070.28;5010103;28;1969;-25
2022/03/19 04:53:13;;;;;;;;;;;;;;;23.30;13.84;103072.97;5002624;28;1110;-26
2022/03/19 04:55:38;;;;;;;;;;;;;;;23.85;13.85;103065.78;5002951;28;936;-29
2022/03/19 04:58:04;;;;;;;;;;;;;;;25.30;14.03;103073.69;4998820;28;841;-26
2022/03/19 05:00:30;;;;;;;;;;;;;;;24.98;15.28;103074.19;5001961;28;1390;-25
2022/03/19 05:02:55;;;;;;;;;;;;;;;25.31;15.21;103075.38;5003506;28;1108;-28
2022/03/19 05:05:24;;;;;;;;;;;;;;;25.39;15.51;103080.19;4998943;28;849;-26
2022/03/19 05:07:50;;;;;;;;;;;;;;;26.07;14.85;103092.25;5010594;28;762;-24
2022/03/19 05:12:59;;;;;;;;;;;;;;;27.28;14.76;103090.97;5016890;28;611;-26
2022/03/19 05:15:24;;;;;;;;;;;;;;;26.98;15.21;103094.16;5015644;28;747;-27
2022/03/19 05:17:50;;;;;;;;;;;;;;;26.76;15.69;103090.50;4998762;28;908;-27
2022/03/19 05:20:15;;;;;;;;;;;;;;;26.29;16.12;103096.00;5004130;28;811;-25
2022/03/19 05:22:40;;;;;;;;;;;;;;;25.99;16.35;103094.69;4998214;28;854;-26
2022/03/19 05:25:06;;;;;;;;;;;;;;;25.75;16.54;103091.06;4998301;28;841;-27
2022/03/19 05:27:31;;;;;;;;;;;;;;;25.62;16.74;103101.00;5005101;28;907;-25
2022/03/19 05:29:56;;;;;;;;;;;;;;;25.53;16.95;103091.78;5005046;28;980;-24
2022/03/19 05:32:22;;;;;;;;;;;;;;;26.04;16.36;103100.59;4997148;28;1894;-30
2022/03/19 05:34:48;;;;;;;;;;;;;;;26.86;15.58;103098.72;5009950;28;998;-28
2022/03/19 05:37:13;;;;;;;;;;;;;;;26.37;16.10;103095.41;5017223;28;826;-27
2022/03/19 05:39:39;;;;;;;;;;;;;;;26.26;16.15;103088.97;5016465;28;778;-26
2022/03/19 05:42:04;;;;;;;;;;;;;;;26.52;16.04;103094.22;5005347;28;1032;-27
2022/03/19 05:44:29;;;;;;;;;;;;;;;26.69;15.90;103086.59;4998504;28;743;-26
2022/03/19 05:46:57;;;;;;;;;;;;;;;26.87;15.53;103089.66;4997018;28;857;-25
2022/03/19 05:49:22;;;;;;;;;;;;;;;27.41;15.39;103093.50;5008360;28;876;-27
2022/03/19 05:51:48;;;;;;;;;;;;;;;27.10;15.49;103086.94;5016677;28;1910;-26
2022/03/19 05:54:13;;;;;;;;;;;;;;;26.66;16.26;103092.22;5012498;28;957;-27
2022/03/19 05:56:38;;;;;;;;;;;;;;;27.07;15.69;103087.19;4997248;28;806;-29
2022/03/19 05:59:04;;;;;;;;;;;;;;;27.82;15.15;103085.59;4997604;28;813;-26
2022/03/19 06:01:29;;;;;;;;;;;;;;;27.37;15.58;103095.59;4997728;28;769;-26
2022/03/19 06:03:55;;;;;;;;;;;;;;;28.02;15.10;103088.44;5005144;28;928;-26
2022/03/19 06:06:20;;;;;;;;;;;;;;;27.51;15.38;103098.00;5004385;28;817;-25
2022/03/19 06:08:45;;;;;;;;;;;;;;;27.59;15.35;103089.22;4997349;28;1539;-28
2022/03/19 06:11:11;;;;;;;;;;;;;;;27.73;15.29;103092.66;4997114;28;1943;-26
2022/03/19 06:13:36;;;;;;;;;;;;;;;27.58;15.30;103092.06;4997503;28;923;-27
2022/03/19 06:16:02;;;;;;;;;;;;;;;27.77;15.00;103088.72;4997960;28;755;-26
2022/03/19 06:18:27;;;;;;;;;;;;;;;27.63;15.45;103096.09;4997974;28;863;-26
2022/03/19 06:20:53;;;;;;;;;;;;;;;27.83;15.26;103100.84;5003515;28;797;-26
2022/03/19 06:23:18;;;;;;;;;;;;;;;27.70;15.15;103093.78;4997197;28;932;-28
2022/03/19 06:25:43;;;;;;;;;;;;;;;28.11;15.01;103102.03;4998156;28;829;-24
2022/03/19 06:28:09;;;;;;;;;;;;;;;28.32;14.95;103100.31;5015810;28;833;-25
2022/03/19 06:30:37;;;;;;;;;;;;;;;27.80;15.14;103096.56;5016487;28;1956;-27
2022/03/19 06:33:03;;;;;;;;;;;;;;;27.86;15.13;103096.03;5009837;28;837;-29
2022/03/19 06:38:13;;;;;;;;;;;;;;;28.15;14.98;103108.03;5015991;28;635;-28
2022/03/19 06:40:38;;;;;;;;;;;;;;;27.89;14.89;103104.88;5016390;28;813;-29
2022/03/19 06:43:03;;;;;;;;;;;;;;;27.96;14.90;103117.72;5016445;28;805;-26
2022/03/19 06:45:29;;;;;;;;;;;;;;;28.04;14.76;103110.81;5007029;28;924;-27
2022/03/19 06:47:54;;;;;;;;;;;;;;;28.14;14.98;103128.00;4997364;28;907;-26
2022/03/19 06:50:19;;;;;;;;;;;;;;;28.52;14.65;103130.22;5016088;28;814;-26
2022/03/19 06:52:45;;;;;;;;;;;;;;;28.27;14.87;103140.44;5016674;28;1969;-25
2022/03/19 06:55:10;;;;;;;;;;;;;;;28.28;14.86;103134.06;5016221;28;838;-26
2022/03/19 06:57:35;;;;;;;;;;;;;;;28.32;14.72;103130.94;5015545;28;881;-27
2022/03/19 07:00:00;;;;;;;;;;;;;;;28.39;14.62;103141.25;4998206;28;908;-28
2022/03/19 07:02:26;;;;;;;;;;;;;;;28.36;14.76;103143.25;4997183;28;848;-25
2022/03/19 07:04:51;;;;;;;;;;;;;;;28.29;14.91;103144.75;5010099;28;983;-26
2022/03/19 07:07:17;;;;;;;;;;;;;;;29.24;14.07;103145.63;4997054;28;889;-26
2022/03/19 07:09:43;;;;;;;;;;;;;;;28.89;14.34;103147.78;5001868;28;755;-29
2022/03/19 07:12:11;;;;;;;;;;;;;;;28.76;14.24;103143.44;4999034;28;1964;-27
2022/03/19 07:14:37;;;;;;;;;;;;;;;28.91;14.13;103137.66;4997023;28;857;-28
2022/03/19 07:17:03;;;;;;;;;;;;;;;28.51;14.35;103144.75;4996924;28;1131;-27
2022/03/19 07:19:28;;;;;;;;;;;;;;;28.61;14.39;103145.66;5008166;28;849;-26
2022/03/19 07:21:53;;;;;;;;;;;;;;;28.76;14.16;103146.13;4996546;28;901;-26
2022/03/19 07:24:19;;;;;;;;;;;;;;;29.72;13.42;103143.13;5006470;28;806;-30
2022/03/19 07:26:44;;;;;;;;;;;;;;;28.56;14.29;103137.09;4996879;28;809;-26
2022/03/19 07:29:10;;;;;;;;;;;;;;;28.70;14.27;103149.41;4996758;28;1444;-25
2022/03/19 07:31:35;;;;;;;;;;;;;;;29.67;13.35;103146.28;4996943;28;1902;-28
2022/03/19 07:34:01;;;;;;;;;;;;;;;30.44;12.97;103145.47;5003550;28;1163;-28
2022/03/19 07:36:26;;;;;;;;;;;;;;;30.27;13.03;103161.53;5009170;28;854;-26
2022/03/19 07:38:51;;;;;;;;;;;;;;;30.15;13.06;103158.09;4996919;28;731;-27
2022/03/19 07:44:03;;;;;;;;;;;;;;;30.58;12.82;103155.00;4996079;28;1029;-26
2022/03/19 07:46:28;;;;;;;;;;;;;;;30.35;12.79;103147.22;4996491;28;867;-26
2022/03/19 07:48:54;;;;;;;;;;;;;;;30.60;12.63;103147.56;5001200;28;1123;-30
2022/03/19 07:51:19;;;;;;;;;;;;;;;30.70;12.75;103149.41;5004712;28;1984;-26
2022/03/19 07:53:45;;;;;;;;;;;;;;;30.07;13.11;103147.09;5009889;28;1250;-27
2022/03/19 07:56:10;;;;;;;;;;;;;;;30.37;13.04;103137.06;5008610;28;1038;-30
2022/03/19 07:58:36;;;;;;;;;;;;;;;30.58;12.78;103143.28;5011545;28;1242;-26
2022/03/19 08:01:01;;;;;;;;;;;;;;;30.47;12.90;103137.03;5013379;28;766;-28
2022/03/19 08:03:26;;;;;;;;;;;;;;;30.29;12.91;103124.25;5006088;28;825;-26
2022/03/19 08:05:52;;;;;;;;;;;;;;;30.01;12.95;103143.09;5005160;28;786;-28
2022/03/19 08:08:17;;;;;;;;;;;;;;;30.15;12.94;103125.50;4999629;28;949;-28
2022/03/19 08:10:42;;;;;;;;;;;;;;;30.30;13.10;103131.38;5013129;28;2044;-28
2022/03/19 08:13:08;;;;;;;;;;;;;;;30.42;12.96;103132.06;5017090;28;844;-29
2022/03/19 08:15:34;;;;;;;;;;;;;;;30.43;12.89;103125.59;5005235;28;825;-27
2022/03/19 08:17:59;;;;;;;;;;;;;;;29.88;13.24;103123.56;4999456;28;841;-28
2022/03/19 08:20:25;;;;;;;;;;;;;;;30.22;13.10;103120.38;5004953;28;1299;-29
2022/03/19 08:22:51;;;;;;;;;;;;;;;30.73;12.77;103130.09;5009421;28;1210;-27
2022/03/19 08:25:16;;;;;;;;;;;;;;;30.83;12.73;103122.75;5017589;28;1275;-27
2022/03/19 08:27:41;;;;;;;;;;;;;;;30.33;12.76;103116.63;5012833;28;987;-29
2022/03/19 08:30:07;;;;;;;;;;;;;;;30.83;12.44;103119.19;4999324;28;834;-26
2022/03/19 08:32:32;;;;;;;;;;;;;;;29.53;13.62;103115.81;5005620;28;1898;-26
2022/03/19 08:34:58;;;;;;;;;;;;;;;30.34;12.90;103120.22;5006475;28;1120;-29
2022/03/19 08:37:23;;;;;;;;;;;;;;;30.88;12.51;103111.44;5010561;28;1327;-28
2022/03/19 08:42:33;;;;;;;;;;;;;;;30.50;12.67;103106.00;5008965;28;1049;-26
2022/03/19 08:44:58;;;;;;;;;;;;;;;29.48;13.70;103099.13;5009871;28;1092;-28
2022/03/19 08:47:23;;;;;;;;;;;;;;;30.63;12.86;103102.97;5009910;28;1064;-27
2022/03/19 08:49:49;;;;;;;;;;;;;;;30.85;12.55;103099.00;5010820;28;1318;-28
2022/03/19 08:52:14;;;;;;;;;;;;;;;30.25;13.13;103111.09;5008399;28;1906;-27
2022/03/19 08:54:39;;;;;;;;;;;;;;;30.90;12.62;103113.00;5008494;28;1096;-26
2022/03/19 08:57:04;;;;;;;;;;;;;;;30.84;12.61;103108.16;5010965;28;1235;-28
2022/03/19 08:59:30;;;;;;;;;;;;;;;31.18;12.30;103103.09;5011628;28;1282;-28
2022/03/19 09:01:55;;;;;;;;;;;;;;;30.37;13.14;103099.06;5009550;28;1223;-29
2022/03/19 09:04:20;;;;;;;;;;;;;;;29.67;13.63;103111.88;5010465;28;1282;-28
2022/03/19 09:06:46;;;;;;;;;;;;;;;30.44;13.13;103121.03;5004058;28;937;-28
2022/03/19 09:09:14;;;;;;;;;;;;;;;30.60;12.67;103120.41;5009886;28;1159;-27
2022/03/19 09:11:39;;;;;;;;;;;;;;;30.82;12.98;103122.91;5017163;28;1894;-27
2022/03/19 09:14:05;;;;;;;;;;;;;;;30.77;12.98;103105.16;5017277;28;1396;-28
2022/03/19 09:16:30;;;;;;;;;;;;;;;30.74;12.92;103113.63;5017371;28;1379;-26
2022/03/19 09:18:56;;;;;;;;;;;;;;;30.01;13.50;103110.53;5013454;28;1001;-28
2022/03/19 09:21:21;;;;;;;;;;;;;;;30.54;13.23;103112.84;5014463;28;1388;-26
2022/03/19 09:23:49;;;;;;;;;;;;;;;30.64;13.02;103108.25;5016680;28;1454;-29
2022/03/19 09:26:14;;;;;;;;;;;;;;;30.27;13.54;103114.50;5017219;28;1395;-26
2022/03/19 09:28:40;;;;;;;;;;;;;;;31.05;13.09;103104.31;5016562;28;1332;-29
2022/03/19 09:31:05;;;;;;;;;;;;;;;29.70;14.02;103108.88;5014095;28;2331;-27
2022/03/19 09:33:30;;;;;;;;;;;;;;;29.87;13.77;103108.28;5016069;28;1375;-28
2022/03/19 09:35:57;;;;;;;;;;;;;;;29.53;14.08;103115.00;5016672;28;1388;-28
2022/03/19 09:38:22;;;;;;;;;;;;;;;29.68;14.00;103113.56;5016519;28;1329;-27
2022/03/19 09:40:48;;;;;;;;;;;;;;;29.02;14.78;103112.31;5016868;28;1304;-26
2022/03/19 09:43:14;;;;;;;;;;;;;;;30.21;13.77;103121.41;5015188;28;1285;-26
2022/03/19 09:45:39;;;;;;;;;;;;;;;29.43;14.29;103121.25;5008003;28;1139;-28
2022/03/19 09:48:04;;;;;;;;;;;;;;;29.83;13.97;103126.69;5015991;28;1162;-27
2022/03/19 09:50:30;;;;;;;;;;;;;;;30.17;13.81;103133.50;5016339;28;1321;-27
2022/03/19 09:52:56;;;;;;;;;;;;;;;30.49;13.27;103137.75;5016479;28;1980;-30
2022/03/19 09:55:21;;;;;;;;;;;;;;;30.30;13.66;103127.78;5014456;28;1320;-27
2022/03/19 09:57:46;;;;;;;;;;;;;;;30.67;13.17;103145.97;5015627;28;1305;-28
2022/03/19 10:00:12;;;;;;;;;;;;;;;30.69;13.42;103137.66;5016035;28;1189;-29
2022/03/19 10:02:56;;;;;;;;;;;;;;;30.24;13.67;103123.81;5016677;28;1155;-28
2022/03/19 10:10:49;;;;;;;;;;;;;;;30.42;13.67;103121.19;5016003;28;1898;-30
2022/03/19 10:13:14;;;;;;;;;;;;;;;30.46;13.64;103116.31;5016077;28;1316;-29
2022/03/19 10:15:40;;;;;;;;;;;;;;;30.35;13.64;103133.63;5016222;28;1379;-26
2022/03/19 10:18:07;;;;;;;;;;;;;;;30.80;13.28;103136.63;5014807;28;1289;-28
2022/03/19 10:20:34;;;;;;;;;;;;;;;31.02;13.09;103129.94;5009167;28;1400;-30
2022/03/19 10:22:59;;;;;;;;;;;;;;;30.06;13.89;103118.25;5015429;28;1115;-29
2022/03/19 10:25:25;;;;;;;;;;;;;;;29.84;13.92;103130.28;5016133;28;1297;-27
2022/03/19 10:27:50;;;;;;;;;;;;;;;29.75;14.21;103131.97;5015717;28;1340;-26
2022/03/19 10:30:21;;;;;;;;;;;;;;;29.29;14.51;103130.66;5016441;28;1301;-28
2022/03/19 10:32:47;;;;;;;;;;;;;;;29.62;14.36;103130.44;5014224;28;1902;-27
2022/03/19 10:35:25;;;;;;;;;;;;;;;30.51;13.46;103132.16;5011247;28;1356;-27
2022/03/19 10:37:50;;;;;;;;;;;;;;;30.69;13.33;103121.38;4997415;28;916;-28
2022/03/19 10:40:16;;;;;;;;;;;;;;;29.88;14.23;103124.41;5007573;28;1175;-26
2022/03/19 10:42:41;;;;;;;;;;;;;;;30.51;13.56;103105.84;5010176;28;1344;-27
2022/03/19 10:45:11;;;;;;;;;;;;;;;29.94;14.11;103117.56;5007816;28;1251;-26
2022/03/19 10:47:43;;;;;;;;;;;;;;;30.04;14.07;103109.41;5004646;28;1235;-27
2022/03/19 10:50:09;;;;;;;;;;;;;;;30.61;13.39;103110.41;5005662;28;1231;-28
2022/03/19 10:52:36;;;;;;;;;;;;;;;30.61;13.50;103119.41;5008940;28;1977;-27
2022/03/19 10:55:03;;;;;;;;;;;;;;;30.06;13.98;103119.09;5008407;28;1314;-26
2022/03/19 10:57:29;;;;;;;;;;;;;;;29.56;14.54;103112.81;5006986;28;1239;-29
2022/03/19 10:59:54;;;;;;;;;;;;;;;30.23;13.79;103089.50;5004796;28;1294;-27
2022/03/19 11:02:19;;;;;;;;;;;;;;;30.22;14.00;103092.38;5003154;28;1318;-26
2022/03/19 11:04:45;;;;;;;;;;;;;;;30.32;13.83;103104.06;5006292;28;1015;-27
2022/03/19 11:07:10;;;;;;;;;;;;;;;30.48;13.77;103099.88;5009170;28;1297;-27
2022/03/19 11:09:36;;;;;;;;;;;;;;;30.30;13.85;103087.06;5007239;28;1239;-30
2022/03/19 11:12:01;;;;;;;;;;;;;;;29.89;14.53;103090.88;5007828;28;1959;-27
2022/03/19 11:14:27;;;;;;;;;;;;;;;30.27;14.00;103099.09;5008597;28;1239;-27
2022/03/19 11:19:42;;;;;;;;;;;;;;;29.75;14.35;103078.59;5003460;28;1025;-26
2022/03/19 11:22:07;;;;;;;;;;;;;;;30.16;14.08;103072.09;5007403;28;1251;-28
2022/03/19 11:24:33;;;;;;;;;;;;;;;29.17;14.84;103058.59;5014954;28;830;-27
2022/03/19 11:26:59;;;;;;;;;;;;;;;29.85;14.26;103065.00;4997818;28;833;-27
2022/03/19 11:29:25;;;;;;;;;;;;;;;30.25;13.76;103064.94;4995692;28;832;-28
2022/03/19 11:31:57;;;;;;;;;;;;;;;29.65;14.45;103073.19;4998420;28;1902;-26
2022/03/19 11:34:23;;;;;;;;;;;;;;;28.89;15.17;103067.38;5010483;28;1170;-26
2022/03/19 11:36:55;;;;;;;;;;;;;;;28.83;15.26;103067.91;5000787;28;870;-25
2022/03/19 11:39:21;;;;;;;;;;;;;;;30.05;14.14;103064.97;5011531;28;889;-26
2022/03/19 11:41:49;;;;;;;;;;;;;;;29.80;14.42;103068.16;5000179;28;912;-27
2022/03/19 11:44:15;;;;;;;;;;;;;;;30.18;13.96;103079.06;5000733;28;819;-28
2022/03/19 11:46:59;;;;;;;;;;;;;;;30.01;14.32;103074.41;5000472;28;758;-27
2022/03/19 11:49:43;;;;;;;;;;;;;;;29.25;14.69;103068.72;5007988;28;1430;-28
2022/03/19 11:52:08;;;;;;;;;;;;;;;28.84;15.46;103069.63;5007781;28;1973;-27
2022/03/19 11:54:54;;;;;;;;;;;;;;;29.44;14.88;103063.31;5000126;28;845;-26
2022/03/19 11:57:20;;;;;;;;;;;;;;;29.64;14.30;103052.50;4999796;28;813;-26
2022/03/19 11:59:46;;;;;;;;;;;;;;;29.59;14.57;103041.22;5000437;28;802;-26
2022/03/19 12:02:12;;;;;;;;;;;;;;;30.35;13.86;103040.44;5000140;28;775;-26
2022/03/19 12:04:45;;;;;;;;;;;;;;;30.34;14.03;103034.19;5008841;28;1077;-27
2022/03/19 12:07:10;;;;;;;;;;;;;;;30.48;13.75;103035.53;5009758;28;1132;-27
2022/03/19 12:09:38;;;;;;;;;;;;;;;30.03;14.24;103035.25;5003426;28;977;-29
2022/03/19 12:12:15;;;;;;;;;;;;;;;29.94;14.60;103034.31;4999725;28;1965;-26
2022/03/19 12:14:41;;;;;;;;;;;;;;;29.85;14.49;103040.59;5015457;28;1445;-27
2022/03/19 12:17:24;;;;;;;;;;;;;;;29.96;14.33;103027.88;5014046;28;840;-25
2022/03/19 12:19:54;;;;;;;;;;;;;;;29.45;14.09;103028.91;5010747;28;950;-27
2022/03/19 12:22:25;;;;;;;;;;;;;;;28.95;14.79;103023.44;5005611;28;1041;-27
2022/03/19 12:24:51;;;;;;;;;;;;;;;28.93;14.58;103022.72;5008623;28;1199;-27
2022/03/19 12:27:16;;;;;;;;;;;;;;;28.69;14.31;103028.53;5013447;28;1199;-27
2022/03/19 12:29:42;;;;;;;;;;;;;;;28.76;14.47;103002.59;5011721;28;1038;-27
2022/03/19 12:32:07;;;;;;;;;;;;;;;28.58;14.57;103007.81;5008203;28;1918;-29
2022/03/19 12:34:32;;;;;;;;;;;;;;;29.04;14.77;103001.94;5011762;28;1076;-26
2022/03/19 12:36:59;;;;;;;;;;;;;;;28.72;14.70;103001.16;5012564;28;1235;-27
2022/03/19 12:39:25;;;;;;;;;;;;;;;28.80;14.89;103005.88;5011254;28;1231;-26
2022/03/19 12:41:50;;;;;;;;;;;;;;;28.99;14.81;103002.38;5007789;28;1278;-28
2022/03/19 12:44:18;;;;;;;;;;;;;;;28.96;14.68;102989.09;5005277;28;1342;-26
2022/03/19 12:46:44;;;;;;;;;;;;;;;29.02;14.67;103009.34;5012329;28;1337;-27
2022/03/19 12:49:14;;;;;;;;;;;;;;;28.41;14.54;103012.88;5008743;28;1278;-26
2022/03/19 12:51:45;;;;;;;;;;;;;;;28.59;14.80;103004.97;5011659;28;1910;-29
2022/03/19 12:54:17;;;;;;;;;;;;;;;28.39;14.90;103009.50;5013059;28;1231;-28
2022/03/19 12:56:43;;;;;;;;;;;;;;;28.32;14.74;103008.28;5009820;28;1234;-27
2022/03/19 12:59:11;;;;;;;;;;;;;;;28.64;14.60;103011.84;5009508;28;1092;-26
2022/03/19 13:01:36;;;;;;;;;;;;;;;28.13;15.05;103018.00;5009013;28;1289;-29
2022/03/19 13:04:01;;;;;;;;;;;;;;;28.07;14.98;103014.00;5004862;28;1416;-27
2022/03/19 13:06:31;;;;;;;;;;;;;;;28.17;14.98;103008.66;5014152;28;1212;-27
2022/03/19 13:08:56;;;;;;;;;;;;;;;28.09;15.05;103008.47;5010185;28;985;-26
2022/03/19 13:11:21;;;;;;;;;;;;;;;28.94;14.62;103010.91;5009954;28;1894;-26